San Diego International Airport
KSAN : now visible

Airfield :











YOU CAN JOIN US ON...

 
LOGIN :

Register | Disclaimer

   EN    FR    IT 

 









Legend :    VFR   Marginal VFR   IFR   Intensive IFR   Very Intensive IFR
Visi :
Ceiling :
>= 8 km
>= 3000ft
5 to 8 km
1000 to 3000 ft
1500m to 5 km
500 to 1000 ft
800 to 1500m
200 to 500 ft
< 800m
< 200 ft
Symbols :   Thunderstorms  Fog  Heavy snow  Heavy precipitations  Wind > 20 kt






- Airport Elevation : 17 ft
- IATA code : SAN


KSAN - San Diego International

CURRENT METAR :
  • 201751Z 20007KT 9SM FEW012 FEW020 22/15 A2991 RMK AO2 SLP127 T02220150 10228 20206 58002

EXPIRED METARs :
  • 201716Z 24005KT 10SM SCT012 SCT020 22/15 A2991 RMK AO2 T02220150
  • 201651Z VRB03KT 10SM SCT012 BKN018 22/15 A2992 RMK AO2 SLP130 T02170150
  • 201551Z VRB04KT 10SM BKN016 21/16 A2993 RMK AO2 SLP133 T02110156
  • 201451Z 00000KT 10SM OVC016 21/16 A2991 RMK AO2 SLP129 T02110156 53004

TAF KSAN
Valid from the 20 at 18:00 until the 22 at 00:00 UTC


201728Z 2018/2124 VRB05KT P6SM FEW015
FM202000 29008KT P6SM SKC
FM210300 VRB04KT P6SM BKN008
FM211000 VRB03KT P6SM OVC015
TEMPO 2120/2124 27008KT SCT016
KZLA FIR / North America



MET'MAP, your aeronautical weather chart ! - Copyright ORBIFLY December 2007 - Disclaimer

ORBIFLY MET'MAP TEAM :

Programming & Development : Alexandra Zaïnal
Concept & original design : Baudouin d'Aumeries
Assistance for programming : Marc-Olivier Méhu
Technical & hardware support : Manuel Goepfert

Contact : metmap@orbifly.com




SOURCES & CREDITS :

   NOAA       Earth
Advisory